sensor_id;sensor_type;location;lat;lon;timestamp;P1;durP1;ratioP1;P2;durP2;ratioP2
25331;SDS011;13284;52.748;13.452;2023-05-10T00:00:10;6.13;;;5.47;;
25331;SDS011;13284;52.748;13.452;2023-05-10T00:02:37;5.17;;;4.30;;
25331;SDS011;13284;52.748;13.452;2023-05-10T00:05:02;5.90;;;5.30;;
25331;SDS011;13284;52.748;13.452;2023-05-10T00:07:28;6.00;;;5.50;;
25331;SDS011;13284;52.748;13.452;2023-05-10T00:09:53;6.07;;;5.40;;
25331;SDS011;13284;52.748;13.452;2023-05-10T00:12:19;7.70;;;6.57;;
25331;SDS011;13284;52.748;13.452;2023-05-10T00:14:45;6.23;;;5.60;;
25331;SDS011;13284;52.748;13.452;2023-05-10T00:17:10;7.30;;;6.57;;
25331;SDS011;13284;52.748;13.452;2023-05-10T00:19:36;6.70;;;5.80;;
25331;SDS011;13284;52.748;13.452;2023-05-10T00:22:01;7.60;;;5.67;;
25331;SDS011;13284;52.748;13.452;2023-05-10T00:24:27;9.97;;;6.20;;
25331;SDS011;13284;52.748;13.452;2023-05-10T00:26:52;7.90;;;6.53;;
25331;SDS011;13284;52.748;13.452;2023-05-10T00:29:18;6.10;;;5.50;;
25331;SDS011;13284;52.748;13.452;2023-05-10T00:31:44;6.20;;;5.53;;
25331;SDS011;13284;52.748;13.452;2023-05-10T00:34:13;7.93;;;6.53;;
25331;SDS011;13284;52.748;13.452;2023-05-10T00:36:50;6.63;;;5.33;;
25331;SDS011;13284;52.748;13.452;2023-05-10T00:39:16;9.17;;;5.93;;
25331;SDS011;13284;52.748;13.452;2023-05-10T00:41:41;6.77;;;6.10;;
25331;SDS011;13284;52.748;13.452;2023-05-10T00:44:07;7.37;;;6.70;;
25331;SDS011;13284;52.748;13.452;2023-05-10T00:46:32;6.37;;;5.80;;
25331;SDS011;13284;52.748;13.452;2023-05-10T00:48:58;7.37;;;6.30;;
25331;SDS011;13284;52.748;13.452;2023-05-10T00:51:24;6.80;;;6.10;;
25331;SDS011;13284;52.748;13.452;2023-05-10T00:53:49;8.47;;;5.97;;
25331;SDS011;13284;52.748;13.452;2023-05-10T00:56:16;6.83;;;6.13;;
25331;SDS011;13284;52.748;13.452;2023-05-10T00:58:42;6.30;;;5.70;;
25331;SDS011;13284;52.748;13.452;2023-05-10T01:01:08;6.90;;;6.20;;
25331;SDS011;13284;52.748;13.452;2023-05-10T01:03:34;7.57;;;5.50;;
25331;SDS011;13284;52.748;13.452;2023-05-10T01:06:01;7.90;;;5.77;;
25331;SDS011;13284;52.748;13.452;2023-05-10T01:08:28;6.17;;;5.57;;
25331;SDS011;13284;52.748;13.452;2023-05-10T01:10:54;7.10;;;6.50;;
25331;SDS011;13284;52.748;13.452;2023-05-10T01:13:29;6.73;;;6.13;;
25331;SDS011;13284;52.748;13.452;2023-05-10T01:15:58;6.97;;;5.73;;
25331;SDS011;13284;52.748;13.452;2023-05-10T01:18:26;10.63;;;5.73;;
25331;SDS011;13284;52.748;13.452;2023-05-10T01:20:57;8.20;;;7.43;;
25331;SDS011;13284;52.748;13.452;2023-05-10T01:26:29;7.27;;;6.47;;
25331;SDS011;13284;52.748;13.452;2023-05-10T01:29:19;7.20;;;6.50;;
25331;SDS011;13284;52.748;13.452;2023-05-10T01:34:59;6.43;;;5.83;;
25331;SDS011;13284;52.748;13.452;2023-05-10T01:37:29;7.60;;;6.40;;
25331;SDS011;13284;52.748;13.452;2023-05-10T01:40:19;8.90;;;6.20;;
25331;SDS011;13284;52.748;13.452;2023-05-10T01:42:53;7.73;;;5.70;;
25331;SDS011;13284;52.748;13.452;2023-05-10T01:45:27;7.50;;;6.70;;
25331;SDS011;13284;52.748;13.452;2023-05-10T01:50:32;6.53;;;5.50;;
25331;SDS011;13284;52.748;13.452;2023-05-10T01:53:00;8.87;;;6.40;;
25331;SDS011;13284;52.748;13.452;2023-05-10T01:55:29;6.43;;;5.80;;
25331;SDS011;13284;52.748;13.452;2023-05-10T01:58:05;7.45;;;5.90;;
25331;SDS011;13284;52.748;13.452;2023-05-10T02:00:33;6.10;;;5.50;;
25331;SDS011;13284;52.748;13.452;2023-05-10T02:03:00;6.60;;;5.90;;
25331;SDS011;13284;52.748;13.452;2023-05-10T02:05:29;7.20;;;5.80;;
25331;SDS011;13284;52.748;13.452;2023-05-10T02:07:57;7.90;;;6.00;;
25331;SDS011;13284;52.748;13.452;2023-05-10T02:10:26;6.83;;;6.07;;
25331;SDS011;13284;52.748;13.452;2023-05-10T02:12:53;9.60;;;5.77;;
25331;SDS011;13284;52.748;13.452;2023-05-10T02:15:22;8.30;;;5.60;;
25331;SDS011;13284;52.748;13.452;2023-05-10T02:17:48;6.73;;;6.13;;
25331;SDS011;13284;52.748;13.452;2023-05-10T02:20:14;6.57;;;5.23;;
25331;SDS011;13284;52.748;13.452;2023-05-10T02:22:41;7.33;;;5.97;;
25331;SDS011;13284;52.748;13.452;2023-05-10T02:25:08;6.30;;;5.80;;
25331;SDS011;13284;52.748;13.452;2023-05-10T02:27:35;6.47;;;5.67;;
25331;SDS011;13284;52.748;13.452;2023-05-10T02:30:02;7.93;;;5.70;;
25331;SDS011;13284;52.748;13.452;2023-05-10T02:32:28;6.33;;;5.20;;
25331;SDS011;13284;52.748;13.452;2023-05-10T02:34:55;7.83;;;6.43;;
25331;SDS011;13284;52.748;13.452;2023-05-10T02:37:22;6.43;;;5.83;;
25331;SDS011;13284;52.748;13.452;2023-05-10T02:39:49;7.80;;;5.20;;
25331;SDS011;13284;52.748;13.452;2023-05-10T02:42:18;7.30;;;5.93;;
25331;SDS011;13284;52.748;13.452;2023-05-10T02:44:45;8.70;;;5.50;;
25331;SDS011;13284;52.748;13.452;2023-05-10T02:47:12;6.20;;;4.90;;
25331;SDS011;13284;52.748;13.452;2023-05-10T02:49:38;6.50;;;5.73;;
25331;SDS011;13284;52.748;13.452;2023-05-10T02:52:04;7.37;;;5.93;;
25331;SDS011;13284;52.748;13.452;2023-05-10T02:54:33;7.53;;;5.40;;
25331;SDS011;13284;52.748;13.452;2023-05-10T02:57:02;7.63;;;5.53;;
25331;SDS011;13284;52.748;13.452;2023-05-10T02:59:30;7.40;;;5.40;;
25331;SDS011;13284;52.748;13.452;2023-05-10T03:01:57;6.10;;;5.45;;
25331;SDS011;13284;52.748;13.452;2023-05-10T03:04:23;6.73;;;6.10;;
25331;SDS011;13284;52.748;13.452;2023-05-10T03:06:49;5.83;;;5.33;;
25331;SDS011;13284;52.748;13.452;2023-05-10T03:09:15;7.43;;;5.40;;
25331;SDS011;13284;52.748;13.452;2023-05-10T03:17:15;5.53;;;4.70;;
25331;SDS011;13284;52.748;13.452;2023-05-10T03:22:39;5.40;;;4.90;;
25331;SDS011;13284;52.748;13.452;2023-05-10T03:25:10;5.93;;;5.00;;
25331;SDS011;13284;52.748;13.452;2023-05-10T03:27:38;8.50;;;5.23;;
25331;SDS011;13284;52.748;13.452;2023-05-10T03:30:06;6.67;;;5.50;;
25331;SDS011;13284;52.748;13.452;2023-05-10T03:32:33;8.50;;;5.50;;
25331;SDS011;13284;52.748;13.452;2023-05-10T03:34:59;6.40;;;5.27;;
25331;SDS011;13284;52.748;13.452;2023-05-10T03:37:25;7.40;;;5.03;;
25331;SDS011;13284;52.748;13.452;2023-05-10T03:39:50;6.47;;;5.20;;
25331;SDS011;13284;52.748;13.452;2023-05-10T03:42:16;7.10;;;5.17;;
25331;SDS011;13284;52.748;13.452;2023-05-10T03:44:42;5.97;;;5.37;;
25331;SDS011;13284;52.748;13.452;2023-05-10T03:47:08;8.97;;;5.00;;
25331;SDS011;13284;52.748;13.452;2023-05-10T03:49:33;7.60;;;6.00;;
25331;SDS011;13284;52.748;13.452;2023-05-10T03:51:59;5.83;;;5.23;;
25331;SDS011;13284;52.748;13.452;2023-05-10T03:54:25;7.20;;;6.10;;
25331;SDS011;13284;52.748;13.452;2023-05-10T03:56:51;6.57;;;5.50;;
25331;SDS011;13284;52.748;13.452;2023-05-10T03:59:16;10.20;;;5.83;;
25331;SDS011;13284;52.748;13.452;2023-05-10T04:01:42;6.10;;;5.10;;
25331;SDS011;13284;52.748;13.452;2023-05-10T04:04:07;5.30;;;4.80;;
25331;SDS011;13284;52.748;13.452;2023-05-10T04:06:33;5.20;;;4.70;;
25331;SDS011;13284;52.748;13.452;2023-05-10T04:08:58;5.77;;;5.00;;
25331;SDS011;13284;52.748;13.452;2023-05-10T04:11:25;7.33;;;5.47;;
25331;SDS011;13284;52.748;13.452;2023-05-10T04:13:51;7.17;;;4.47;;
25331;SDS011;13284;52.748;13.452;2023-05-10T04:16:16;6.20;;;5.30;;
25331;SDS011;13284;52.748;13.452;2023-05-10T04:18:42;6.03;;;5.00;;
25331;SDS011;13284;52.748;13.452;2023-05-10T04:21:11;8.90;;;6.13;;
25331;SDS011;13284;52.748;13.452;2023-05-10T04:23:38;7.60;;;5.53;;
25331;SDS011;13284;52.748;13.452;2023-05-10T04:26:03;6.30;;;4.97;;
25331;SDS011;13284;52.748;13.452;2023-05-10T04:28:29;5.37;;;4.97;;
25331;SDS011;13284;52.748;13.452;2023-05-10T04:31:07;5.90;;;5.30;;
25331;SDS011;13284;52.748;13.452;2023-05-10T04:33:34;5.77;;;5.27;;
25331;SDS011;13284;52.748;13.452;2023-05-10T04:36:00;5.43;;;4.63;;
25331;SDS011;13284;52.748;13.452;2023-05-10T04:38:26;5.37;;;4.60;;
25331;SDS011;13284;52.748;13.452;2023-05-10T04:40:52;5.80;;;5.20;;
25331;SDS011;13284;52.748;13.452;2023-05-10T04:43:18;6.90;;;5.47;;
25331;SDS011;13284;52.748;13.452;2023-05-10T04:45:44;5.73;;;5.17;;
25331;SDS011;13284;52.748;13.452;2023-05-10T04:48:09;7.03;;;4.93;;
25331;SDS011;13284;52.748;13.452;2023-05-10T04:50:34;5.20;;;4.73;;
25331;SDS011;13284;52.748;13.452;2023-05-10T04:53:00;7.17;;;4.80;;
25331;SDS011;13284;52.748;13.452;2023-05-10T04:55:25;6.70;;;5.17;;
25331;SDS011;13284;52.748;13.452;2023-05-10T04:57:54;5.43;;;4.60;;
25331;SDS011;13284;52.748;13.452;2023-05-10T05:00:22;5.10;;;4.50;;
25331;SDS011;13284;52.748;13.452;2023-05-10T05:02:48;5.50;;;5.00;;
25331;SDS011;13284;52.748;13.452;2023-05-10T05:05:13;6.27;;;5.00;;
25331;SDS011;13284;52.748;13.452;2023-05-10T05:07:39;6.40;;;5.43;;
25331;SDS011;13284;52.748;13.452;2023-05-10T05:10:07;5.07;;;4.67;;
25331;SDS011;13284;52.748;13.452;2023-05-10T05:12:33;6.97;;;6.27;;
25331;SDS011;13284;52.748;13.452;2023-05-10T05:15:00;9.73;;;4.30;;
25331;SDS011;13284;52.748;13.452;2023-05-10T05:17:26;6.20;;;5.10;;
25331;SDS011;13284;52.748;13.452;2023-05-10T05:19:51;4.20;;;3.90;;
25331;SDS011;13284;52.748;13.452;2023-05-10T05:22:18;5.37;;;4.13;;
25331;SDS011;13284;52.748;13.452;2023-05-10T05:24:44;4.73;;;4.33;;
25331;SDS011;13284;52.748;13.452;2023-05-10T05:27:10;4.50;;;3.90;;
25331;SDS011;13284;52.748;13.452;2023-05-10T05:29:35;6.27;;;4.40;;
25331;SDS011;13284;52.748;13.452;2023-05-10T05:32:01;13.60;;;4.30;;
25331;SDS011;13284;52.748;13.452;2023-05-10T05:34:26;4.67;;;4.27;;
25331;SDS011;13284;52.748;13.452;2023-05-10T05:36:52;5.00;;;4.03;;
25331;SDS011;13284;52.748;13.452;2023-05-10T05:39:17;4.53;;;4.00;;
25331;SDS011;13284;52.748;13.452;2023-05-10T05:41:43;8.70;;;4.07;;
25331;SDS011;13284;52.748;13.452;2023-05-10T05:44:08;4.93;;;4.00;;
25331;SDS011;13284;52.748;13.452;2023-05-10T05:46:34;4.37;;;3.97;;
25331;SDS011;13284;52.748;13.452;2023-05-10T05:49:00;5.47;;;4.20;;
25331;SDS011;13284;52.748;13.452;2023-05-10T05:51:26;4.80;;;3.90;;
25331;SDS011;13284;52.748;13.452;2023-05-10T05:53:51;4.87;;;3.50;;
25331;SDS011;13284;52.748;13.452;2023-05-10T05:56:17;3.97;;;3.57;;
25331;SDS011;13284;52.748;13.452;2023-05-10T05:58:49;4.20;;;3.80;;
25331;SDS011;13284;52.748;13.452;2023-05-10T06:01:17;4.73;;;4.33;;
25331;SDS011;13284;52.748;13.452;2023-05-10T06:03:42;4.60;;;3.47;;
25331;SDS011;13284;52.748;13.452;2023-05-10T06:06:08;4.03;;;3.67;;
25331;SDS011;13284;52.748;13.452;2023-05-10T06:08:33;8.80;;;3.80;;
25331;SDS011;13284;52.748;13.452;2023-05-10T06:10:59;5.43;;;3.70;;
25331;SDS011;13284;52.748;13.452;2023-05-10T06:13:25;4.77;;;3.30;;
25331;SDS011;13284;52.748;13.452;2023-05-10T06:15:56;3.70;;;3.33;;
25331;SDS011;13284;52.748;13.452;2023-05-10T06:18:25;6.03;;;3.20;;
25331;SDS011;13284;52.748;13.452;2023-05-10T06:20:51;8.67;;;4.00;;
25331;SDS011;13284;52.748;13.452;2023-05-10T06:23:16;7.07;;;4.03;;
25331;SDS011;13284;52.748;13.452;2023-05-10T06:25:42;4.80;;;3.60;;
25331;SDS011;13284;52.748;13.452;2023-05-10T06:28:07;4.60;;;3.50;;
25331;SDS011;13284;52.748;13.452;2023-05-10T06:30:33;4.33;;;3.83;;
25331;SDS011;13284;52.748;13.452;2023-05-10T06:33:00;4.33;;;3.37;;
25331;SDS011;13284;52.748;13.452;2023-05-10T06:35:26;3.73;;;3.27;;
25331;SDS011;13284;52.748;13.452;2023-05-10T06:37:51;3.23;;;2.83;;
25331;SDS011;13284;52.748;13.452;2023-05-10T06:40:17;4.40;;;4.00;;
25331;SDS011;13284;52.748;13.452;2023-05-10T06:42:43;12.00;;;3.60;;
25331;SDS011;13284;52.748;13.452;2023-05-10T06:45:09;4.57;;;3.67;;
25331;SDS011;13284;52.748;13.452;2023-05-10T06:47:38;3.73;;;3.17;;
25331;SDS011;13284;52.748;13.452;2023-05-10T06:50:04;4.87;;;4.17;;
25331;SDS011;13284;52.748;13.452;2023-05-10T06:52:30;4.33;;;3.37;;
25331;SDS011;13284;52.748;13.452;2023-05-10T06:54:55;3.77;;;3.33;;
25331;SDS011;13284;52.748;13.452;2023-05-10T06:57:21;5.43;;;3.40;;
25331;SDS011;13284;52.748;13.452;2023-05-10T06:59:46;5.80;;;3.37;;
25331;SDS011;13284;52.748;13.452;2023-05-10T07:02:12;4.67;;;3.70;;
25331;SDS011;13284;52.748;13.452;2023-05-10T07:04:37;4.00;;;3.60;;
25331;SDS011;13284;52.748;13.452;2023-05-10T07:07:03;5.10;;;3.33;;
25331;SDS011;13284;52.748;13.452;2023-05-10T07:09:28;3.30;;;3.00;;
25331;SDS011;13284;52.748;13.452;2023-05-10T07:11:54;6.10;;;3.47;;
25331;SDS011;13284;52.748;13.452;2023-05-10T07:14:20;6.47;;;3.77;;
25331;SDS011;13284;52.748;13.452;2023-05-10T07:16:46;4.70;;;3.17;;
25331;SDS011;13284;52.748;13.452;2023-05-10T07:19:12;4.80;;;3.20;;
25331;SDS011;13284;52.748;13.452;2023-05-10T07:21:37;3.40;;;3.10;;
25331;SDS011;13284;52.748;13.452;2023-05-10T07:24:05;4.60;;;3.80;;
25331;SDS011;13284;52.748;13.452;2023-05-10T07:26:33;4.60;;;3.20;;
25331;SDS011;13284;52.748;13.452;2023-05-10T07:28:59;8.20;;;3.23;;
25331;SDS011;13284;52.748;13.452;2023-05-10T07:31:24;4.90;;;3.17;;
25331;SDS011;13284;52.748;13.452;2023-05-10T07:33:50;3.47;;;2.83;;
25331;SDS011;13284;52.748;13.452;2023-05-10T07:36:16;4.60;;;3.10;;
25331;SDS011;13284;52.748;13.452;2023-05-10T07:38:41;4.50;;;3.20;;
25331;SDS011;13284;52.748;13.452;2023-05-10T07:41:10;3.80;;;3.30;;
25331;SDS011;13284;52.748;13.452;2023-05-10T07:43:36;3.40;;;3.10;;
25331;SDS011;13284;52.748;13.452;2023-05-10T07:46:02;3.80;;;3.40;;
25331;SDS011;13284;52.748;13.452;2023-05-10T07:48:27;3.33;;;2.60;;
25331;SDS011;13284;52.748;13.452;2023-05-10T07:50:53;3.97;;;2.80;;
25331;SDS011;13284;52.748;13.452;2023-05-10T07:53:18;2.93;;;2.63;;
25331;SDS011;13284;52.748;13.452;2023-05-10T07:55:44;3.23;;;3.03;;
25331;SDS011;13284;52.748;13.452;2023-05-10T07:58:15;3.60;;;3.00;;
25331;SDS011;13284;52.748;13.452;2023-05-10T08:00:41;4.00;;;2.70;;
25331;SDS011;13284;52.748;13.452;2023-05-10T08:03:06;6.80;;;3.30;;
25331;SDS011;13284;52.748;13.452;2023-05-10T08:05:35;3.43;;;3.00;;
25331;SDS011;13284;52.748;13.452;2023-05-10T08:08:00;3.60;;;3.27;;
25331;SDS011;13284;52.748;13.452;2023-05-10T08:10:26;3.23;;;2.60;;
25331;SDS011;13284;52.748;13.452;2023-05-10T08:12:51;6.80;;;3.33;;
25331;SDS011;13284;52.748;13.452;2023-05-10T08:15:17;3.30;;;3.00;;
25331;SDS011;13284;52.748;13.452;2023-05-10T08:17:42;3.23;;;2.93;;
25331;SDS011;13284;52.748;13.452;2023-05-10T08:20:08;3.77;;;3.00;;
25331;SDS011;13284;52.748;13.452;2023-05-10T08:22:37;7.10;;;2.90;;
25331;SDS011;13284;52.748;13.452;2023-05-10T08:25:02;5.97;;;3.43;;
25331;SDS011;13284;52.748;13.452;2023-05-10T08:27:28;3.60;;;2.57;;
25331;SDS011;13284;52.748;13.452;2023-05-10T08:29:53;4.37;;;2.80;;
25331;SDS011;13284;52.748;13.452;2023-05-10T08:32:22;3.60;;;3.13;;
25331;SDS011;13284;52.748;13.452;2023-05-10T08:34:47;3.97;;;3.10;;
25331;SDS011;13284;52.748;13.452;2023-05-10T08:37:13;4.90;;;3.00;;
25331;SDS011;13284;52.748;13.452;2023-05-10T08:39:38;3.57;;;2.60;;
25331;SDS011;13284;52.748;13.452;2023-05-10T08:42:04;3.13;;;2.80;;
25331;SDS011;13284;52.748;13.452;2023-05-10T08:44:32;4.10;;;3.07;;
25331;SDS011;13284;52.748;13.452;2023-05-10T08:46:59;4.20;;;3.40;;
25331;SDS011;13284;52.748;13.452;2023-05-10T08:49:27;3.10;;;2.77;;
25331;SDS011;13284;52.748;13.452;2023-05-10T08:51:55;3.23;;;3.03;;
25331;SDS011;13284;52.748;13.452;2023-05-10T08:54:24;3.13;;;2.60;;
25331;SDS011;13284;52.748;13.452;2023-05-10T08:56:50;3.37;;;3.07;;
25331;SDS011;13284;52.748;13.452;2023-05-10T08:59:15;3.73;;;2.60;;
25331;SDS011;13284;52.748;13.452;2023-05-10T09:01:41;3.23;;;2.90;;
25331;SDS011;13284;52.748;13.452;2023-05-10T09:04:09;4.50;;;2.97;;
25331;SDS011;13284;52.748;13.452;2023-05-10T09:06:34;2.93;;;2.73;;
25331;SDS011;13284;52.748;13.452;2023-05-10T09:09:01;3.20;;;2.70;;
25331;SDS011;13284;52.748;13.452;2023-05-10T09:11:26;5.90;;;3.00;;
25331;SDS011;13284;52.748;13.452;2023-05-10T09:13:54;3.30;;;2.60;;
25331;SDS011;13284;52.748;13.452;2023-05-10T09:16:20;2.53;;;2.30;;
25331;SDS011;13284;52.748;13.452;2023-05-10T09:18:46;5.60;;;3.40;;
25331;SDS011;13284;52.748;13.452;2023-05-10T09:21:11;4.87;;;3.13;;
25331;SDS011;13284;52.748;13.452;2023-05-10T09:23:38;2.93;;;2.67;;
25331;SDS011;13284;52.748;13.452;2023-05-10T09:26:08;3.43;;;2.73;;
25331;SDS011;13284;52.748;13.452;2023-05-10T09:28:34;3.53;;;2.67;;
25331;SDS011;13284;52.748;13.452;2023-05-10T09:31:15;3.00;;;2.80;;
25331;SDS011;13284;52.748;13.452;2023-05-10T09:33:46;2.83;;;2.63;;
25331;SDS011;13284;52.748;13.452;2023-05-10T09:36:12;3.10;;;2.90;;
25331;SDS011;13284;52.748;13.452;2023-05-10T09:38:48;4.60;;;3.20;;
25331;SDS011;13284;52.748;13.452;2023-05-10T09:41:16;4.37;;;3.40;;
25331;SDS011;13284;52.748;13.452;2023-05-10T09:43:46;3.77;;;3.47;;
25331;SDS011;13284;52.748;13.452;2023-05-10T09:46:12;3.93;;;3.30;;
25331;SDS011;13284;52.748;13.452;2023-05-10T09:48:40;3.40;;;3.10;;
25331;SDS011;13284;52.748;13.452;2023-05-10T09:51:07;4.00;;;3.07;;
25331;SDS011;13284;52.748;13.452;2023-05-10T09:53:33;3.20;;;3.00;;
25331;SDS011;13284;52.748;13.452;2023-05-10T09:55:58;3.13;;;2.70;;
25331;SDS011;13284;52.748;13.452;2023-05-10T09:58:24;2.83;;;2.60;;
25331;SDS011;13284;52.748;13.452;2023-05-10T10:00:50;3.23;;;3.00;;
25331;SDS011;13284;52.748;13.452;2023-05-10T10:03:19;3.10;;;2.70;;
25331;SDS011;13284;52.748;13.452;2023-05-10T10:05:46;4.60;;;2.90;;
25331;SDS011;13284;52.748;13.452;2023-05-10T10:08:12;4.33;;;3.43;;
25331;SDS011;13284;52.748;13.452;2023-05-10T10:10:39;3.00;;;2.70;;
25331;SDS011;13284;52.748;13.452;2023-05-10T10:13:11;3.57;;;3.27;;
25331;SDS011;13284;52.748;13.452;2023-05-10T10:15:37;5.50;;;3.10;;
25331;SDS011;13284;52.748;13.452;2023-05-10T10:18:02;3.80;;;3.33;;
25331;SDS011;13284;52.748;13.452;2023-05-10T10:20:30;3.40;;;3.10;;
25331;SDS011;13284;52.748;13.452;2023-05-10T10:22:55;2.97;;;2.73;;
25331;SDS011;13284;52.748;13.452;2023-05-10T10:25:20;3.17;;;2.87;;
25331;SDS011;13284;52.748;13.452;2023-05-10T10:30:22;3.47;;;3.17;;
25331;SDS011;13284;52.748;13.452;2023-05-10T10:32:59;3.37;;;3.13;;
25331;SDS011;13284;52.748;13.452;2023-05-10T10:35:53;3.17;;;2.90;;
25331;SDS011;13284;52.748;13.452;2023-05-10T10:38:20;2.83;;;2.63;;
25331;SDS011;13284;52.748;13.452;2023-05-10T10:41:01;4.07;;;3.77;;
25331;SDS011;13284;52.748;13.452;2023-05-10T10:43:27;3.53;;;3.13;;
25331;SDS011;13284;52.748;13.452;2023-05-10T10:48:46;4.63;;;2.70;;
25331;SDS011;13284;52.748;13.452;2023-05-10T10:51:13;4.33;;;3.93;;
25331;SDS011;13284;52.748;13.452;2023-05-10T10:53:39;3.47;;;3.17;;
25331;SDS011;13284;52.748;13.452;2023-05-10T10:56:09;4.37;;;3.27;;
25331;SDS011;13284;52.748;13.452;2023-05-10T10:58:40;3.43;;;2.73;;
25331;SDS011;13284;52.748;13.452;2023-05-10T11:01:13;3.30;;;3.00;;
25331;SDS011;13284;52.748;13.452;2023-05-10T11:03:40;3.37;;;3.00;;
25331;SDS011;13284;52.748;13.452;2023-05-10T11:06:28;3.07;;;2.80;;
25331;SDS011;13284;52.748;13.452;2023-05-10T11:08:54;3.77;;;3.47;;
25331;SDS011;13284;52.748;13.452;2023-05-10T11:11:23;6.27;;;3.30;;
25331;SDS011;13284;52.748;13.452;2023-05-10T11:13:48;5.13;;;3.80;;
25331;SDS011;13284;52.748;13.452;2023-05-10T11:16:57;2.80;;;2.63;;
25331;SDS011;13284;52.748;13.452;2023-05-10T11:19:12;3.33;;;3.03;;
25331;SDS011;13284;52.748;13.452;2023-05-10T11:22:21;3.27;;;3.00;;
25331;SDS011;13284;52.748;13.452;2023-05-10T11:24:30;4.27;;;3.50;;
25331;SDS011;13284;52.748;13.452;2023-05-10T11:26:56;5.20;;;3.20;;
25331;SDS011;13284;52.748;13.452;2023-05-10T11:29:22;4.97;;;3.50;;
25331;SDS011;13284;52.748;13.452;2023-05-10T11:31:48;4.60;;;3.03;;
25331;SDS011;13284;52.748;13.452;2023-05-10T11:34:27;3.13;;;2.77;;
25331;SDS011;13284;52.748;13.452;2023-05-10T11:36:59;5.07;;;3.10;;
25331;SDS011;13284;52.748;13.452;2023-05-10T11:39:28;3.00;;;2.70;;
25331;SDS011;13284;52.748;13.452;2023-05-10T11:41:55;3.00;;;2.70;;
25331;SDS011;13284;52.748;13.452;2023-05-10T11:44:22;4.33;;;3.27;;
25331;SDS011;13284;52.748;13.452;2023-05-10T11:46:48;3.30;;;3.00;;
25331;SDS011;13284;52.748;13.452;2023-05-10T11:49:14;6.90;;;3.00;;
25331;SDS011;13284;52.748;13.452;2023-05-10T11:51:39;3.30;;;2.90;;
25331;SDS011;13284;52.748;13.452;2023-05-10T11:54:07;4.40;;;3.13;;
25331;SDS011;13284;52.748;13.452;2023-05-10T11:56:34;2.80;;;2.60;;
25331;SDS011;13284;52.748;13.452;2023-05-10T11:59:00;2.90;;;2.70;;
25331;SDS011;13284;52.748;13.452;2023-05-10T12:01:27;3.70;;;3.40;;
25331;SDS011;13284;52.748;13.452;2023-05-10T12:03:54;4.97;;;3.17;;
25331;SDS011;13284;52.748;13.452;2023-05-10T12:06:25;2.87;;;2.67;;
25331;SDS011;13284;52.748;13.452;2023-05-10T12:08:53;3.10;;;2.80;;
25331;SDS011;13284;52.748;13.452;2023-05-10T12:11:19;3.97;;;3.00;;
25331;SDS011;13284;52.748;13.452;2023-05-10T12:13:46;3.43;;;3.00;;
25331;SDS011;13284;52.748;13.452;2023-05-10T12:16:16;3.53;;;3.00;;
25331;SDS011;13284;52.748;13.452;2023-05-10T12:18:42;2.80;;;2.60;;
25331;SDS011;13284;52.748;13.452;2023-05-10T12:21:09;5.00;;;3.17;;
25331;SDS011;13284;52.748;13.452;2023-05-10T12:23:36;3.60;;;3.30;;
25331;SDS011;13284;52.748;13.452;2023-05-10T12:26:02;3.10;;;2.70;;
25331;SDS011;13284;52.748;13.452;2023-05-10T12:28:32;3.33;;;2.87;;
25331;SDS011;13284;52.748;13.452;2023-05-10T12:30:58;3.10;;;2.53;;
25331;SDS011;13284;52.748;13.452;2023-05-10T12:33:24;3.13;;;2.80;;
25331;SDS011;13284;52.748;13.452;2023-05-10T12:35:51;2.87;;;2.67;;
25331;SDS011;13284;52.748;13.452;2023-05-10T12:38:24;3.33;;;2.87;;
25331;SDS011;13284;52.748;13.452;2023-05-10T12:40:50;4.43;;;2.83;;
25331;SDS011;13284;52.748;13.452;2023-05-10T12:43:15;4.03;;;3.17;;
25331;SDS011;13284;52.748;13.452;2023-05-10T12:45:41;3.43;;;3.13;;
25331;SDS011;13284;52.748;13.452;2023-05-10T12:48:06;3.17;;;2.97;;
25331;SDS011;13284;52.748;13.452;2023-05-10T12:50:32;3.00;;;2.70;;
25331;SDS011;13284;52.748;13.452;2023-05-10T12:52:57;4.10;;;3.40;;
25331;SDS011;13284;52.748;13.452;2023-05-10T12:55:23;2.70;;;2.50;;
25331;SDS011;13284;52.748;13.452;2023-05-10T12:57:48;3.57;;;2.90;;
25331;SDS011;13284;52.748;13.452;2023-05-10T13:00:14;3.53;;;2.40;;
25331;SDS011;13284;52.748;13.452;2023-05-10T13:02:40;3.63;;;3.33;;
25331;SDS011;13284;52.748;13.452;2023-05-10T13:05:05;3.00;;;2.80;;
25331;SDS011;13284;52.748;13.452;2023-05-10T13:07:31;2.70;;;2.50;;
25331;SDS011;13284;52.748;13.452;2023-05-10T13:09:57;3.17;;;2.97;;
25331;SDS011;13284;52.748;13.452;2023-05-10T13:12:22;3.33;;;3.00;;
25331;SDS011;13284;52.748;13.452;2023-05-10T13:14:48;3.97;;;3.00;;
25331;SDS011;13284;52.748;13.452;2023-05-10T13:17:13;3.53;;;2.93;;
25331;SDS011;13284;52.748;13.452;2023-05-10T13:19:39;2.97;;;2.77;;
25331;SDS011;13284;52.748;13.452;2023-05-10T13:22:05;4.10;;;2.30;;
25331;SDS011;13284;52.748;13.452;2023-05-10T13:24:30;6.13;;;3.00;;
25331;SDS011;13284;52.748;13.452;2023-05-10T13:26:56;3.97;;;3.07;;
25331;SDS011;13284;52.748;13.452;2023-05-10T13:29:21;6.30;;;3.50;;
25331;SDS011;13284;52.748;13.452;2023-05-10T13:31:47;3.50;;;3.20;;
25331;SDS011;13284;52.748;13.452;2023-05-10T13:34:13;3.27;;;3.07;;
25331;SDS011;13284;52.748;13.452;2023-05-10T13:36:38;3.13;;;2.47;;
25331;SDS011;13284;52.748;13.452;2023-05-10T13:39:04;2.70;;;2.50;;
25331;SDS011;13284;52.748;13.452;2023-05-10T13:41:30;5.33;;;2.30;;
25331;SDS011;13284;52.748;13.452;2023-05-10T13:43:55;4.60;;;3.03;;
25331;SDS011;13284;52.748;13.452;2023-05-10T13:46:21;3.30;;;3.00;;
25331;SDS011;13284;52.748;13.452;2023-05-10T13:48:47;2.60;;;2.40;;
25331;SDS011;13284;52.748;13.452;2023-05-10T13:51:12;2.70;;;2.50;;
25331;SDS011;13284;52.748;13.452;2023-05-10T13:53:38;3.40;;;3.20;;
25331;SDS011;13284;52.748;13.452;2023-05-10T13:56:03;3.40;;;3.10;;
25331;SDS011;13284;52.748;13.452;2023-05-10T13:58:29;3.43;;;2.33;;
25331;SDS011;13284;52.748;13.452;2023-05-10T14:00:56;2.60;;;2.40;;
25331;SDS011;13284;52.748;13.452;2023-05-10T14:03:21;2.27;;;2.17;;
25331;SDS011;13284;52.748;13.452;2023-05-10T14:05:47;4.80;;;2.90;;
25331;SDS011;13284;52.748;13.452;2023-05-10T14:08:12;3.03;;;2.73;;
25331;SDS011;13284;52.748;13.452;2023-05-10T14:10:38;2.60;;;2.40;;
25331;SDS011;13284;52.748;13.452;2023-05-10T14:13:04;4.00;;;2.60;;
25331;SDS011;13284;52.748;13.452;2023-05-10T14:15:30;4.40;;;3.90;;
25331;SDS011;13284;52.748;13.452;2023-05-10T14:17:55;3.00;;;2.53;;
25331;SDS011;13284;52.748;13.452;2023-05-10T14:20:21;3.73;;;2.37;;
25331;SDS011;13284;52.748;13.452;2023-05-10T14:22:46;3.40;;;2.60;;
25331;SDS011;13284;52.748;13.452;2023-05-10T14:25:12;3.00;;;2.63;;
25331;SDS011;13284;52.748;13.452;2023-05-10T14:27:38;2.30;;;2.10;;
25331;SDS011;13284;52.748;13.452;2023-05-10T14:30:04;5.17;;;2.70;;
25331;SDS011;13284;52.748;13.452;2023-05-10T14:32:29;2.87;;;2.43;;
25331;SDS011;13284;52.748;13.452;2023-05-10T14:34:56;2.10;;;2.00;;
25331;SDS011;13284;52.748;13.452;2023-05-10T14:37:22;2.30;;;2.20;;
25331;SDS011;13284;52.748;13.452;2023-05-10T14:39:47;2.70;;;2.50;;
25331;SDS011;13284;52.748;13.452;2023-05-10T14:42:13;2.77;;;2.50;;
25331;SDS011;13284;52.748;13.452;2023-05-10T14:44:38;2.50;;;2.30;;
25331;SDS011;13284;52.748;13.452;2023-05-10T14:47:04;3.70;;;1.90;;
25331;SDS011;13284;52.748;13.452;2023-05-10T14:49:30;3.03;;;2.43;;
25331;SDS011;13284;52.748;13.452;2023-05-10T14:51:55;2.30;;;2.10;;
25331;SDS011;13284;52.748;13.452;2023-05-10T14:54:21;3.30;;;2.60;;